sensor_id;sensor_type;location;lat;lon;timestamp;temperature;humidity
14473;DHT22;7322;50.872;4.386;2023-07-29T00:00:01;24.50;99.90
14473;DHT22;7322;50.872;4.386;2023-07-29T00:02:28;24.50;99.90
14473;DHT22;7322;50.872;4.386;2023-07-29T00:04:56;24.50;99.90
14473;DHT22;7322;50.872;4.386;2023-07-29T00:07:23;24.50;99.90
14473;DHT22;7322;50.872;4.386;2023-07-29T00:09:50;24.50;99.90
14473;DHT22;7322;50.872;4.386;2023-07-29T00:12:17;24.40;99.90
14473;DHT22;7322;50.872;4.386;2023-07-29T00:14:44;24.40;99.90
14473;DHT22;7322;50.872;4.386;2023-07-29T00:17:12;24.30;99.90
14473;DHT22;7322;50.872;4.386;2023-07-29T00:19:39;24.30;99.90
14473;DHT22;7322;50.872;4.386;2023-07-29T00:22:06;24.30;99.90
14473;DHT22;7322;50.872;4.386;2023-07-29T00:24:34;24.30;99.90
14473;DHT22;7322;50.872;4.386;2023-07-29T00:27:01;24.30;99.90
14473;DHT22;7322;50.872;4.386;2023-07-29T00:29:27;24.40;99.90
14473;DHT22;7322;50.872;4.386;2023-07-29T00:31:54;24.40;99.90
14473;DHT22;7322;50.872;4.386;2023-07-29T00:34:23;24.30;99.90
14473;DHT22;7322;50.872;4.386;2023-07-29T00:36:50;24.20;99.90
14473;DHT22;7322;50.872;4.386;2023-07-29T00:39:17;24.20;99.90
14473;DHT22;7322;50.872;4.386;2023-07-29T00:41:44;24.00;99.90
14473;DHT22;7322;50.872;4.386;2023-07-29T00:44:11;24.10;99.90
14473;DHT22;7322;50.872;4.386;2023-07-29T00:46:40;24.10;99.90
14473;DHT22;7322;50.872;4.386;2023-07-29T00:49:08;24.00;99.90
14473;DHT22;7322;50.872;4.386;2023-07-29T00:51:36;24.00;99.90
14473;DHT22;7322;50.872;4.386;2023-07-29T00:54:03;23.90;99.90
14473;DHT22;7322;50.872;4.386;2023-07-29T00:56:30;23.90;99.90
14473;DHT22;7322;50.872;4.386;2023-07-29T00:58:57;24.00;99.90
14473;DHT22;7322;50.872;4.386;2023-07-29T01:01:27;24.00;99.90
14473;DHT22;7322;50.872;4.386;2023-07-29T01:03:54;24.00;99.90
14473;DHT22;7322;50.872;4.386;2023-07-29T01:06:29;23.90;99.90
14473;DHT22;7322;50.872;4.386;2023-07-29T01:09:02;23.90;99.90
14473;DHT22;7322;50.872;4.386;2023-07-29T01:11:38;23.90;99.90
14473;DHT22;7322;50.872;4.386;2023-07-29T01:14:17;23.80;99.90
14473;DHT22;7322;50.872;4.386;2023-07-29T01:16:51;23.90;99.90
14473;DHT22;7322;50.872;4.386;2023-07-29T01:19:32;23.90;99.90
14473;DHT22;7322;50.872;4.386;2023-07-29T01:22:03;23.80;99.90
14473;DHT22;7322;50.872;4.386;2023-07-29T01:24:32;23.80;99.90
14473;DHT22;7322;50.872;4.386;2023-07-29T01:26:59;23.70;99.90
14473;DHT22;7322;50.872;4.386;2023-07-29T01:29:28;23.60;99.90
14473;DHT22;7322;50.872;4.386;2023-07-29T01:31:56;23.50;99.90
14473;DHT22;7322;50.872;4.386;2023-07-29T01:34:29;23.40;99.90
14473;DHT22;7322;50.872;4.386;2023-07-29T01:36:58;23.40;99.90
14473;DHT22;7322;50.872;4.386;2023-07-29T01:39:29;23.50;99.90
14473;DHT22;7322;50.872;4.386;2023-07-29T01:42:01;23.40;99.90
14473;DHT22;7322;50.872;4.386;2023-07-29T01:44:28;23.50;99.90
14473;DHT22;7322;50.872;4.386;2023-07-29T01:46:55;23.50;99.90
14473;DHT22;7322;50.872;4.386;2023-07-29T01:49:22;23.50;99.90
14473;DHT22;7322;50.872;4.386;2023-07-29T01:51:49;23.50;99.90
14473;DHT22;7322;50.872;4.386;2023-07-29T01:54:16;23.50;99.90
14473;DHT22;7322;50.872;4.386;2023-07-29T01:56:43;23.50;99.90
14473;DHT22;7322;50.872;4.386;2023-07-29T01:59:12;23.50;99.90
14473;DHT22;7322;50.872;4.386;2023-07-29T02:01:39;23.40;99.90
14473;DHT22;7322;50.872;4.386;2023-07-29T02:04:06;23.40;99.90
14473;DHT22;7322;50.872;4.386;2023-07-29T02:06:33;23.40;99.90
14473;DHT22;7322;50.872;4.386;2023-07-29T02:09:00;23.30;99.90
14473;DHT22;7322;50.872;4.386;2023-07-29T02:11:28;23.40;99.90
14473;DHT22;7322;50.872;4.386;2023-07-29T02:13:55;23.50;99.90
14473;DHT22;7322;50.872;4.386;2023-07-29T02:16:23;23.40;99.90
14473;DHT22;7322;50.872;4.386;2023-07-29T02:18:50;23.40;99.90
14473;DHT22;7322;50.872;4.386;2023-07-29T02:21:17;23.40;99.90
14473;DHT22;7322;50.872;4.386;2023-07-29T02:23:44;23.50;99.90
14473;DHT22;7322;50.872;4.386;2023-07-29T02:26:11;23.40;99.90
14473;DHT22;7322;50.872;4.386;2023-07-29T02:28:38;23.40;99.90
14473;DHT22;7322;50.872;4.386;2023-07-29T02:31:15;23.40;99.90
14473;DHT22;7322;50.872;4.386;2023-07-29T02:33:44;23.50;99.90
14473;DHT22;7322;50.872;4.386;2023-07-29T02:36:13;23.40;99.90
14473;DHT22;7322;50.872;4.386;2023-07-29T02:38:41;23.50;99.90
14473;DHT22;7322;50.872;4.386;2023-07-29T02:41:08;23.50;99.90
14473;DHT22;7322;50.872;4.386;2023-07-29T02:43:36;23.50;99.90
14473;DHT22;7322;50.872;4.386;2023-07-29T02:46:03;23.50;99.90
14473;DHT22;7322;50.872;4.386;2023-07-29T02:48:30;23.50;99.90
14473;DHT22;7322;50.872;4.386;2023-07-29T02:50:59;23.40;99.90
14473;DHT22;7322;50.872;4.386;2023-07-29T02:53:26;23.50;99.90
14473;DHT22;7322;50.872;4.386;2023-07-29T02:55:53;23.50;99.90
14473;DHT22;7322;50.872;4.386;2023-07-29T02:58:20;23.50;99.90
14473;DHT22;7322;50.872;4.386;2023-07-29T03:00:46;23.40;99.90
14473;DHT22;7322;50.872;4.386;2023-07-29T03:03:14;23.30;99.90
14473;DHT22;7322;50.872;4.386;2023-07-29T03:05:41;23.30;99.90
14473;DHT22;7322;50.872;4.386;2023-07-29T03:08:09;23.40;99.90
14473;DHT22;7322;50.872;4.386;2023-07-29T03:10:36;23.40;99.90
14473;DHT22;7322;50.872;4.386;2023-07-29T03:13:03;23.50;99.90
14473;DHT22;7322;50.872;4.386;2023-07-29T03:15:31;23.40;99.90
14473;DHT22;7322;50.872;4.386;2023-07-29T03:17:59;23.50;99.90
14473;DHT22;7322;50.872;4.386;2023-07-29T03:20:26;23.50;99.90
14473;DHT22;7322;50.872;4.386;2023-07-29T03:22:53;23.40;99.90
14473;DHT22;7322;50.872;4.386;2023-07-29T03:25:21;23.40;99.90
14473;DHT22;7322;50.872;4.386;2023-07-29T03:27:48;23.40;99.90
14473;DHT22;7322;50.872;4.386;2023-07-29T03:30:19;23.50;99.90
14473;DHT22;7322;50.872;4.386;2023-07-29T03:32:46;23.50;99.90
14473;DHT22;7322;50.872;4.386;2023-07-29T03:35:13;23.50;99.90
14473;DHT22;7322;50.872;4.386;2023-07-29T03:37:40;23.50;99.90
14473;DHT22;7322;50.872;4.386;2023-07-29T03:40:08;23.50;99.90
14473;DHT22;7322;50.872;4.386;2023-07-29T03:42:37;23.40;99.90
14473;DHT22;7322;50.872;4.386;2023-07-29T03:45:05;23.40;99.90
14473;DHT22;7322;50.872;4.386;2023-07-29T03:47:32;23.60;99.90
14473;DHT22;7322;50.872;4.386;2023-07-29T03:49:59;23.50;99.90
14473;DHT22;7322;50.872;4.386;2023-07-29T03:52:26;23.40;99.90
14473;DHT22;7322;50.872;4.386;2023-07-29T03:54:53;23.40;99.90
14473;DHT22;7322;50.872;4.386;2023-07-29T03:57:20;23.40;99.90
14473;DHT22;7322;50.872;4.386;2023-07-29T03:59:48;23.40;99.90
14473;DHT22;7322;50.872;4.386;2023-07-29T04:02:15;23.30;99.90
14473;DHT22;7322;50.872;4.386;2023-07-29T04:04:42;23.30;99.90
14473;DHT22;7322;50.872;4.386;2023-07-29T04:07:12;23.30;99.90
14473;DHT22;7322;50.872;4.386;2023-07-29T04:09:40;23.40;99.90
14473;DHT22;7322;50.872;4.386;2023-07-29T04:12:09;23.40;99.90
14473;DHT22;7322;50.872;4.386;2023-07-29T04:14:35;23.40;99.90
14473;DHT22;7322;50.872;4.386;2023-07-29T04:17:04;23.30;99.90
14473;DHT22;7322;50.872;4.386;2023-07-29T04:19:31;23.30;99.90
14473;DHT22;7322;50.872;4.386;2023-07-29T04:21:58;23.40;99.90
14473;DHT22;7322;50.872;4.386;2023-07-29T04:24:25;23.40;99.90
14473;DHT22;7322;50.872;4.386;2023-07-29T04:26:52;23.40;99.90
14473;DHT22;7322;50.872;4.386;2023-07-29T04:29:19;23.40;99.90
14473;DHT22;7322;50.872;4.386;2023-07-29T04:31:48;23.40;99.90
14473;DHT22;7322;50.872;4.386;2023-07-29T04:34:17;23.30;99.90
14473;DHT22;7322;50.872;4.386;2023-07-29T04:36:45;23.30;99.90
14473;DHT22;7322;50.872;4.386;2023-07-29T04:39:12;23.30;99.90
14473;DHT22;7322;50.872;4.386;2023-07-29T04:41:39;23.40;99.90
14473;DHT22;7322;50.872;4.386;2023-07-29T04:44:06;23.40;99.90
14473;DHT22;7322;50.872;4.386;2023-07-29T04:46:33;23.40;99.90
14473;DHT22;7322;50.872;4.386;2023-07-29T04:49:00;23.50;99.90
14473;DHT22;7322;50.872;4.386;2023-07-29T04:51:30;23.50;99.90
14473;DHT22;7322;50.872;4.386;2023-07-29T04:53:57;23.50;99.90
14473;DHT22;7322;50.872;4.386;2023-07-29T04:56:24;23.50;99.90
14473;DHT22;7322;50.872;4.386;2023-07-29T04:58:51;23.50;99.90
14473;DHT22;7322;50.872;4.386;2023-07-29T05:01:19;23.40;99.90
14473;DHT22;7322;50.872;4.386;2023-07-29T05:03:46;23.40;99.90
14473;DHT22;7322;50.872;4.386;2023-07-29T05:06:13;23.50;99.90
14473;DHT22;7322;50.872;4.386;2023-07-29T05:08:41;23.50;99.90
14473;DHT22;7322;50.872;4.386;2023-07-29T05:11:09;23.50;99.90
14473;DHT22;7322;50.872;4.386;2023-07-29T05:13:36;23.40;99.90
14473;DHT22;7322;50.872;4.386;2023-07-29T05:16:10;23.50;99.90
14473;DHT22;7322;50.872;4.386;2023-07-29T05:18:40;23.50;99.90
14473;DHT22;7322;50.872;4.386;2023-07-29T05:21:10;23.40;99.90
14473;DHT22;7322;50.872;4.386;2023-07-29T05:23:45;23.50;99.90
14473;DHT22;7322;50.872;4.386;2023-07-29T05:26:15;23.50;99.90
14473;DHT22;7322;50.872;4.386;2023-07-29T05:28:43;23.50;99.90
14473;DHT22;7322;50.872;4.386;2023-07-29T05:31:11;23.60;99.90
14473;DHT22;7322;50.872;4.386;2023-07-29T05:33:40;23.60;99.90
14473;DHT22;7322;50.872;4.386;2023-07-29T05:36:07;23.60;99.90
14473;DHT22;7322;50.872;4.386;2023-07-29T05:38:36;23.50;99.90
14473;DHT22;7322;50.872;4.386;2023-07-29T05:41:05;23.50;99.90
14473;DHT22;7322;50.872;4.386;2023-07-29T05:43:39;23.50;99.90
14473;DHT22;7322;50.872;4.386;2023-07-29T05:46:08;23.50;99.90
14473;DHT22;7322;50.872;4.386;2023-07-29T05:48:38;23.50;99.90
14473;DHT22;7322;50.872;4.386;2023-07-29T05:51:05;23.50;99.90
14473;DHT22;7322;50.872;4.386;2023-07-29T05:53:33;23.60;99.90
14473;DHT22;7322;50.872;4.386;2023-07-29T05:56:00;23.60;99.90
14473;DHT22;7322;50.872;4.386;2023-07-29T05:58:34;23.60;99.90
14473;DHT22;7322;50.872;4.386;2023-07-29T06:01:01;23.60;99.90
14473;DHT22;7322;50.872;4.386;2023-07-29T06:03:28;23.60;99.90
14473;DHT22;7322;50.872;4.386;2023-07-29T06:05:55;23.60;99.90
14473;DHT22;7322;50.872;4.386;2023-07-29T06:08:22;23.70;99.90
14473;DHT22;7322;50.872;4.386;2023-07-29T06:10:49;23.70;99.90
14473;DHT22;7322;50.872;4.386;2023-07-29T06:13:17;23.70;99.90
14473;DHT22;7322;50.872;4.386;2023-07-29T06:15:46;23.80;99.90
14473;DHT22;7322;50.872;4.386;2023-07-29T06:18:13;23.70;99.90
14473;DHT22;7322;50.872;4.386;2023-07-29T06:20:40;23.80;99.90
14473;DHT22;7322;50.872;4.386;2023-07-29T06:23:08;23.90;99.90
14473;DHT22;7322;50.872;4.386;2023-07-29T06:25:35;23.80;99.90
14473;DHT22;7322;50.872;4.386;2023-07-29T06:28:03;23.90;99.90
14473;DHT22;7322;50.872;4.386;2023-07-29T06:30:30;24.00;99.90
14473;DHT22;7322;50.872;4.386;2023-07-29T06:32:59;24.00;99.90
14473;DHT22;7322;50.872;4.386;2023-07-29T06:35:27;24.00;99.90
14473;DHT22;7322;50.872;4.386;2023-07-29T06:37:54;24.00;99.90
14473;DHT22;7322;50.872;4.386;2023-07-29T06:40:21;24.10;99.90
14473;DHT22;7322;50.872;4.386;2023-07-29T06:42:48;24.10;99.90
14473;DHT22;7322;50.872;4.386;2023-07-29T06:45:15;24.10;99.90
14473;DHT22;7322;50.872;4.386;2023-07-29T06:47:43;24.20;99.90
14473;DHT22;7322;50.872;4.386;2023-07-29T06:50:12;24.20;99.90
14473;DHT22;7322;50.872;4.386;2023-07-29T06:52:38;24.20;99.90
14473;DHT22;7322;50.872;4.386;2023-07-29T06:55:06;24.20;99.90
14473;DHT22;7322;50.872;4.386;2023-07-29T06:57:33;24.20;99.90
14473;DHT22;7322;50.872;4.386;2023-07-29T07:00:01;24.20;99.90
14473;DHT22;7322;50.872;4.386;2023-07-29T07:02:28;24.30;99.90
14473;DHT22;7322;50.872;4.386;2023-07-29T07:04:55;24.40;99.90
14473;DHT22;7322;50.872;4.386;2023-07-29T07:07:24;24.40;99.90
14473;DHT22;7322;50.872;4.386;2023-07-29T07:09:54;24.40;99.90
14473;DHT22;7322;50.872;4.386;2023-07-29T07:12:33;24.40;99.90
14473;DHT22;7322;50.872;4.386;2023-07-29T07:15:08;24.50;99.90
14473;DHT22;7322;50.872;4.386;2023-07-29T07:17:42;24.50;99.90
14473;DHT22;7322;50.872;4.386;2023-07-29T07:20:12;24.50;99.90
14473;DHT22;7322;50.872;4.386;2023-07-29T07:22:45;24.50;99.90
14473;DHT22;7322;50.872;4.386;2023-07-29T07:25:14;24.50;99.90
14473;DHT22;7322;50.872;4.386;2023-07-29T07:27:42;24.40;99.90
14473;DHT22;7322;50.872;4.386;2023-07-29T07:30:19;24.50;99.90
14473;DHT22;7322;50.872;4.386;2023-07-29T07:32:47;24.40;99.90
14473;DHT22;7322;50.872;4.386;2023-07-29T07:35:16;24.30;99.90
14473;DHT22;7322;50.872;4.386;2023-07-29T07:41:01;24.40;99.90
14473;DHT22;7322;50.872;4.386;2023-07-29T07:44:01;24.40;99.90
14473;DHT22;7322;50.872;4.386;2023-07-29T07:46:36;24.40;99.90
14473;DHT22;7322;50.872;4.386;2023-07-29T07:49:03;24.40;99.90
14473;DHT22;7322;50.872;4.386;2023-07-29T07:51:31;24.50;99.90
14473;DHT22;7322;50.872;4.386;2023-07-29T07:53:58;24.50;99.90
14473;DHT22;7322;50.872;4.386;2023-07-29T07:56:26;24.50;99.90
14473;DHT22;7322;50.872;4.386;2023-07-29T07:58:53;24.50;99.90
14473;DHT22;7322;50.872;4.386;2023-07-29T08:01:20;24.40;99.90
14473;DHT22;7322;50.872;4.386;2023-07-29T08:03:47;24.40;99.90
14473;DHT22;7322;50.872;4.386;2023-07-29T08:06:14;24.50;99.90
14473;DHT22;7322;50.872;4.386;2023-07-29T08:08:41;24.40;99.90
14473;DHT22;7322;50.872;4.386;2023-07-29T08:11:08;24.40;99.90
14473;DHT22;7322;50.872;4.386;2023-07-29T08:13:36;24.50;99.90
14473;DHT22;7322;50.872;4.386;2023-07-29T08:16:03;24.50;99.90
14473;DHT22;7322;50.872;4.386;2023-07-29T08:18:30;24.50;99.90
14473;DHT22;7322;50.872;4.386;2023-07-29T08:21:00;24.50;99.90
14473;DHT22;7322;50.872;4.386;2023-07-29T08:23:29;24.70;99.90
14473;DHT22;7322;50.872;4.386;2023-07-29T08:25:57;24.70;99.90
14473;DHT22;7322;50.872;4.386;2023-07-29T08:28:27;24.70;99.90
14473;DHT22;7322;50.872;4.386;2023-07-29T08:30:56;24.70;99.90
14473;DHT22;7322;50.872;4.386;2023-07-29T08:33:23;24.80;99.90
14473;DHT22;7322;50.872;4.386;2023-07-29T08:35:50;24.80;99.90
14473;DHT22;7322;50.872;4.386;2023-07-29T08:38:17;24.80;99.90
14473;DHT22;7322;50.872;4.386;2023-07-29T08:43:29;24.90;99.90
14473;DHT22;7322;50.872;4.386;2023-07-29T08:45:59;24.80;99.90
14473;DHT22;7322;50.872;4.386;2023-07-29T08:48:32;24.80;99.90
14473;DHT22;7322;50.872;4.386;2023-07-29T08:51:00;24.90;99.90
14473;DHT22;7322;50.872;4.386;2023-07-29T08:53:36;24.80;99.90
14473;DHT22;7322;50.872;4.386;2023-07-29T08:56:04;24.90;99.90
14473;DHT22;7322;50.872;4.386;2023-07-29T08:58:32;24.80;99.90
14473;DHT22;7322;50.872;4.386;2023-07-29T09:01:00;24.80;99.90
14473;DHT22;7322;50.872;4.386;2023-07-29T09:03:27;24.80;99.90
14473;DHT22;7322;50.872;4.386;2023-07-29T09:05:55;24.90;99.90
14473;DHT22;7322;50.872;4.386;2023-07-29T09:08:25;25.00;99.90
14473;DHT22;7322;50.872;4.386;2023-07-29T09:10:53;25.10;99.90
14473;DHT22;7322;50.872;4.386;2023-07-29T09:13:29;25.20;99.90
14473;DHT22;7322;50.872;4.386;2023-07-29T09:16:00;25.20;99.90
14473;DHT22;7322;50.872;4.386;2023-07-29T09:18:27;25.30;99.90
14473;DHT22;7322;50.872;4.386;2023-07-29T09:21:01;25.30;99.90
14473;DHT22;7322;50.872;4.386;2023-07-29T09:23:43;25.40;99.90
14473;DHT22;7322;50.872;4.386;2023-07-29T09:26:32;25.40;99.90
14473;DHT22;7322;50.872;4.386;2023-07-29T09:29:10;25.40;99.90
14473;DHT22;7322;50.872;4.386;2023-07-29T09:31:40;25.40;99.90
14473;DHT22;7322;50.872;4.386;2023-07-29T09:34:16;25.40;99.90
14473;DHT22;7322;50.872;4.386;2023-07-29T09:36:44;25.50;99.90
14473;DHT22;7322;50.872;4.386;2023-07-29T09:39:12;25.50;99.90
14473;DHT22;7322;50.872;4.386;2023-07-29T09:41:59;25.50;99.90
14473;DHT22;7322;50.872;4.386;2023-07-29T09:44:26;25.50;99.90
14473;DHT22;7322;50.872;4.386;2023-07-29T09:47:04;25.50;99.90
14473;DHT22;7322;50.872;4.386;2023-07-29T09:49:35;25.50;99.90
14473;DHT22;7322;50.872;4.386;2023-07-29T09:52:04;25.50;99.90
14473;DHT22;7322;50.872;4.386;2023-07-29T09:54:36;25.50;99.90
14473;DHT22;7322;50.872;4.386;2023-07-29T09:57:19;25.50;99.90
14473;DHT22;7322;50.872;4.386;2023-07-29T09:59:54;25.50;99.90
14473;DHT22;7322;50.872;4.386;2023-07-29T10:02:22;25.50;99.90
14473;DHT22;7322;50.872;4.386;2023-07-29T10:05:01;25.50;99.90
14473;DHT22;7322;50.872;4.386;2023-07-29T10:07:30;25.60;99.90
14473;DHT22;7322;50.872;4.386;2023-07-29T10:09:59;25.50;99.90
14473;DHT22;7322;50.872;4.386;2023-07-29T10:12:29;25.60;99.90
14473;DHT22;7322;50.872;4.386;2023-07-29T10:14:59;25.60;99.90
14473;DHT22;7322;50.872;4.386;2023-07-29T10:17:29;25.60;99.90
14473;DHT22;7322;50.872;4.386;2023-07-29T10:19:57;25.60;99.90
14473;DHT22;7322;50.872;4.386;2023-07-29T10:22:28;25.60;99.90
14473;DHT22;7322;50.872;4.386;2023-07-29T10:25:04;25.70;99.90
14473;DHT22;7322;50.872;4.386;2023-07-29T10:27:38;25.70;99.90
14473;DHT22;7322;50.872;4.386;2023-07-29T10:30:15;25.70;99.90
14473;DHT22;7322;50.872;4.386;2023-07-29T10:32:45;25.80;99.90
14473;DHT22;7322;50.872;4.386;2023-07-29T10:35:13;25.70;99.90
14473;DHT22;7322;50.872;4.386;2023-07-29T10:37:41;25.70;99.90
14473;DHT22;7322;50.872;4.386;2023-07-29T10:40:09;25.60;99.90
14473;DHT22;7322;50.872;4.386;2023-07-29T10:42:37;25.60;99.90
14473;DHT22;7322;50.872;4.386;2023-07-29T10:45:18;25.60;99.90
14473;DHT22;7322;50.872;4.386;2023-07-29T10:47:47;25.60;99.90
14473;DHT22;7322;50.872;4.386;2023-07-29T10:50:19;25.60;99.90
14473;DHT22;7322;50.872;4.386;2023-07-29T10:52:53;25.60;99.90
14473;DHT22;7322;50.872;4.386;2023-07-29T10:55:28;25.60;99.90
14473;DHT22;7322;50.872;4.386;2023-07-29T10:58:20;25.60;99.90
14473;DHT22;7322;50.872;4.386;2023-07-29T11:00:51;25.60;99.90
14473;DHT22;7322;50.872;4.386;2023-07-29T11:03:41;25.60;99.90
14473;DHT22;7322;50.872;4.386;2023-07-29T11:06:27;25.60;99.90
14473;DHT22;7322;50.872;4.386;2023-07-29T11:08:55;25.60;99.90
14473;DHT22;7322;50.872;4.386;2023-07-29T11:11:22;25.60;99.90
14473;DHT22;7322;50.872;4.386;2023-07-29T11:13:53;25.50;99.90
14473;DHT22;7322;50.872;4.386;2023-07-29T11:16:40;25.50;99.90
14473;DHT22;7322;50.872;4.386;2023-07-29T11:19:14;25.50;99.90
14473;DHT22;7322;50.872;4.386;2023-07-29T11:21:44;25.40;99.90
14473;DHT22;7322;50.872;4.386;2023-07-29T11:24:17;25.50;99.90
14473;DHT22;7322;50.872;4.386;2023-07-29T11:26:46;25.50;99.90
14473;DHT22;7322;50.872;4.386;2023-07-29T11:29:13;25.50;99.90
14473;DHT22;7322;50.872;4.386;2023-07-29T11:31:42;25.50;99.90
14473;DHT22;7322;50.872;4.386;2023-07-29T11:34:11;25.50;99.90
14473;DHT22;7322;50.872;4.386;2023-07-29T11:36:45;25.50;99.90
14473;DHT22;7322;50.872;4.386;2023-07-29T11:39:12;25.60;99.90
14473;DHT22;7322;50.872;4.386;2023-07-29T11:41:42;25.60;99.90
14473;DHT22;7322;50.872;4.386;2023-07-29T11:44:10;25.60;99.90
14473;DHT22;7322;50.872;4.386;2023-07-29T11:46:43;25.60;99.90
14473;DHT22;7322;50.872;4.386;2023-07-29T11:49:11;25.60;99.90
14473;DHT22;7322;50.872;4.386;2023-07-29T11:51:38;25.70;99.90
14473;DHT22;7322;50.872;4.386;2023-07-29T11:54:05;25.70;99.90
14473;DHT22;7322;50.872;4.386;2023-07-29T11:56:34;25.70;99.90
14473;DHT22;7322;50.872;4.386;2023-07-29T11:59:06;25.70;99.90
14473;DHT22;7322;50.872;4.386;2023-07-29T12:01:33;25.70;99.90
14473;DHT22;7322;50.872;4.386;2023-07-29T12:04:00;25.70;99.90
14473;DHT22;7322;50.872;4.386;2023-07-29T12:06:29;25.70;99.90
14473;DHT22;7322;50.872;4.386;2023-07-29T12:08:57;25.70;99.90
14473;DHT22;7322;50.872;4.386;2023-07-29T12:11:24;25.70;99.90
14473;DHT22;7322;50.872;4.386;2023-07-29T12:13:53;25.70;99.90
14473;DHT22;7322;50.872;4.386;2023-07-29T12:16:20;25.70;99.90
14473;DHT22;7322;50.872;4.386;2023-07-29T12:18:47;25.70;99.90
14473;DHT22;7322;50.872;4.386;2023-07-29T12:21:17;25.60;99.90
14473;DHT22;7322;50.872;4.386;2023-07-29T12:23:46;25.60;99.90
14473;DHT22;7322;50.872;4.386;2023-07-29T12:26:14;25.60;99.90
14473;DHT22;7322;50.872;4.386;2023-07-29T12:28:45;25.60;99.90
14473;DHT22;7322;50.872;4.386;2023-07-29T12:31:13;25.60;99.90
14473;DHT22;7322;50.872;4.386;2023-07-29T12:33:40;25.60;99.90
14473;DHT22;7322;50.872;4.386;2023-07-29T12:36:07;25.60;99.90
14473;DHT22;7322;50.872;4.386;2023-07-29T12:38:36;25.60;99.90
14473;DHT22;7322;50.872;4.386;2023-07-29T12:41:04;25.60;99.90
14473;DHT22;7322;50.872;4.386;2023-07-29T12:43:32;25.70;99.90
14473;DHT22;7322;50.872;4.386;2023-07-29T12:46:00;25.70;99.90
14473;DHT22;7322;50.872;4.386;2023-07-29T12:48:27;25.70;99.90
14473;DHT22;7322;50.872;4.386;2023-07-29T12:50:54;25.70;99.90
14473;DHT22;7322;50.872;4.386;2023-07-29T12:53:21;25.80;99.90
14473;DHT22;7322;50.872;4.386;2023-07-29T12:55:48;25.70;99.90
14473;DHT22;7322;50.872;4.386;2023-07-29T12:58:17;25.80;99.90
14473;DHT22;7322;50.872;4.386;2023-07-29T13:00:44;25.80;99.90
14473;DHT22;7322;50.872;4.386;2023-07-29T13:03:11;25.80;99.90
14473;DHT22;7322;50.872;4.386;2023-07-29T13:05:38;25.80;99.90
14473;DHT22;7322;50.872;4.386;2023-07-29T13:08:05;25.80;99.90
14473;DHT22;7322;50.872;4.386;2023-07-29T13:10:32;25.80;99.90
14473;DHT22;7322;50.872;4.386;2023-07-29T13:12:59;25.80;99.90
14473;DHT22;7322;50.872;4.386;2023-07-29T13:15:27;25.80;99.90
14473;DHT22;7322;50.872;4.386;2023-07-29T13:17:54;25.80;99.90
14473;DHT22;7322;50.872;4.386;2023-07-29T13:20:21;25.80;99.90
14473;DHT22;7322;50.872;4.386;2023-07-29T13:22:48;25.80;99.90
14473;DHT22;7322;50.872;4.386;2023-07-29T13:25:15;25.70;99.90
14473;DHT22;7322;50.872;4.386;2023-07-29T13:27:42;25.80;99.90
14473;DHT22;7322;50.872;4.386;2023-07-29T13:30:09;25.80;99.90
14473;DHT22;7322;50.872;4.386;2023-07-29T13:32:37;25.80;99.90
14473;DHT22;7322;50.872;4.386;2023-07-29T13:35:05;25.80;99.90
14473;DHT22;7322;50.872;4.386;2023-07-29T13:37:32;25.80;99.90
14473;DHT22;7322;50.872;4.386;2023-07-29T13:40:00;25.80;99.90
14473;DHT22;7322;50.872;4.386;2023-07-29T13:42:27;25.80;99.90
14473;DHT22;7322;50.872;4.386;2023-07-29T13:44:54;25.80;99.90
14473;DHT22;7322;50.872;4.386;2023-07-29T13:47:21;25.80;99.90
14473;DHT22;7322;50.872;4.386;2023-07-29T13:49:48;25.80;99.90
14473;DHT22;7322;50.872;4.386;2023-07-29T13:52:15;25.80;99.90
14473;DHT22;7322;50.872;4.386;2023-07-29T13:54:42;25.90;99.90
14473;DHT22;7322;50.872;4.386;2023-07-29T13:57:09;25.90;99.90
14473;DHT22;7322;50.872;4.386;2023-07-29T13:59:36;25.90;99.90
14473;DHT22;7322;50.872;4.386;2023-07-29T14:02:04;25.90;99.90
14473;DHT22;7322;50.872;4.386;2023-07-29T14:04:32;25.90;99.90
14473;DHT22;7322;50.872;4.386;2023-07-29T14:07:00;26.00;99.90
14473;DHT22;7322;50.872;4.386;2023-07-29T14:09:27;26.00;99.90
14473;DHT22;7322;50.872;4.386;2023-07-29T14:11:54;25.90;99.90
14473;DHT22;7322;50.872;4.386;2023-07-29T14:14:21;26.00;99.90
14473;DHT22;7322;50.872;4.386;2023-07-29T14:16:48;26.00;99.90
14473;DHT22;7322;50.872;4.386;2023-07-29T14:19:15;26.00;99.90
14473;DHT22;7322;50.872;4.386;2023-07-29T14:21:42;26.00;99.90
14473;DHT22;7322;50.872;4.386;2023-07-29T14:24:11;26.00;99.90
14473;DHT22;7322;50.872;4.386;2023-07-29T14:26:38;26.00;99.90
14473;DHT22;7322;50.872;4.386;2023-07-29T14:29:05;26.00;99.90
14473;DHT22;7322;50.872;4.386;2023-07-29T14:31:32;26.00;99.90
14473;DHT22;7322;50.872;4.386;2023-07-29T14:33:59;26.00;99.90
14473;DHT22;7322;50.872;4.386;2023-07-29T14:36:26;26.00;99.90
14473;DHT22;7322;50.872;4.386;2023-07-29T14:38:53;26.00;99.90
14473;DHT22;7322;50.872;4.386;2023-07-29T14:41:27;26.00;99.90
14473;DHT22;7322;50.872;4.386;2023-07-29T14:43:54;26.00;99.90
14473;DHT22;7322;50.872;4.386;2023-07-29T14:46:21;26.00;99.90
14473;DHT22;7322;50.872;4.386;2023-07-29T14:48:48;26.10;99.90
14473;DHT22;7322;50.872;4.386;2023-07-29T14:51:15;26.10;99.90
14473;DHT22;7322;50.872;4.386;2023-07-29T14:53:42;26.10;99.90
14473;DHT22;7322;50.872;4.386;2023-07-29T14:56:09;26.00;99.90
14473;DHT22;7322;50.872;4.386;2023-07-29T14:58:37;26.00;99.90
14473;DHT22;7322;50.872;4.386;2023-07-29T15:01:04;26.00;99.90
14473;DHT22;7322;50.872;4.386;2023-07-29T15:03:31;26.00;99.90
14473;DHT22;7322;50.872;4.386;2023-07-29T15:05:58;26.10;99.90
14473;DHT22;7322;50.872;4.386;2023-07-29T15:08:26;26.10;99.90
14473;DHT22;7322;50.872;4.386;2023-07-29T15:10:53;26.10;99.90
14473;DHT22;7322;50.872;4.386;2023-07-29T15:13:21;26.10;99.90
14473;DHT22;7322;50.872;4.386;2023-07-29T15:15:49;26.10;99.90
14473;DHT22;7322;50.872;4.386;2023-07-29T15:18:16;26.10;99.90
14473;DHT22;7322;50.872;4.386;2023-07-29T15:20:43;26.10;99.90
14473;DHT22;7322;50.872;4.386;2023-07-29T15:23:11;26.10;99.90
14473;DHT22;7322;50.872;4.386;2023-07-29T15:25:39;26.10;99.90
14473;DHT22;7322;50.872;4.386;2023-07-29T15:28:05;26.10;99.90
14473;DHT22;7322;50.872;4.386;2023-07-29T15:30:35;26.10;99.90
14473;DHT22;7322;50.872;4.386;2023-07-29T15:33:04;26.10;99.90
14473;DHT22;7322;50.872;4.386;2023-07-29T15:35:36;26.10;99.90
14473;DHT22;7322;50.872;4.386;2023-07-29T15:38:04;26.10;99.90
14473;DHT22;7322;50.872;4.386;2023-07-29T15:40:31;26.10;99.90
14473;DHT22;7322;50.872;4.386;2023-07-29T15:42:59;26.10;99.90
14473;DHT22;7322;50.872;4.386;2023-07-29T15:45:26;26.10;99.90
14473;DHT22;7322;50.872;4.386;2023-07-29T15:47:53;26.10;99.90
14473;DHT22;7322;50.872;4.386;2023-07-29T15:50:21;26.00;99.90
14473;DHT22;7322;50.872;4.386;2023-07-29T15:52:48;26.00;99.90
14473;DHT22;7322;50.872;4.386;2023-07-29T15:55:15;25.90;99.90
14473;DHT22;7322;50.872;4.386;2023-07-29T15:57:42;26.00;99.90
14473;DHT22;7322;50.872;4.386;2023-07-29T16:00:11;26.00;99.90